sensor_id;sensor_type;location;lat;lon;timestamp;pressure;altitude;pressure_sealevel;temperature;humidity
79577;BME280;69045;48.136;11.386;2023-06-10T00:01:16;94921.38;;;21.37;51.98
79577;BME280;69045;48.136;11.386;2023-06-10T00:03:44;94917.84;;;21.41;51.95
79577;BME280;69045;48.136;11.386;2023-06-10T00:06:14;94921.06;;;21.38;51.38
79577;BME280;69045;48.136;11.386;2023-06-10T00:08:42;94924.72;;;21.29;51.80
79577;BME280;69045;48.136;11.386;2023-06-10T00:11:10;94920.50;;;21.09;51.89
79577;BME280;69045;48.136;11.386;2023-06-10T00:13:38;94921.75;;;20.97;51.92
79577;BME280;69045;48.136;11.386;2023-06-10T00:16:08;94926.47;;;20.87;51.94
79577;BME280;69045;48.136;11.386;2023-06-10T00:18:36;94926.81;;;20.80;52.55
79577;BME280;69045;48.136;11.386;2023-06-10T00:21:05;94921.66;;;20.70;52.55
79577;BME280;69045;48.136;11.386;2023-06-10T00:23:33;94923.81;;;20.68;52.77
79577;BME280;69045;48.136;11.386;2023-06-10T00:26:05;94928.78;;;20.75;52.58
79577;BME280;69045;48.136;11.386;2023-06-10T00:28:33;94929.38;;;20.85;52.13
79577;BME280;69045;48.136;11.386;2023-06-10T00:31:02;94918.47;;;20.87;52.16
79577;BME280;69045;48.136;11.386;2023-06-10T00:33:33;94928.16;;;20.96;51.85
79577;BME280;69045;48.136;11.386;2023-06-10T00:36:02;94921.38;;;21.04;51.89
79577;BME280;69045;48.136;11.386;2023-06-10T00:38:30;94913.25;;;20.95;51.94
79577;BME280;69045;48.136;11.386;2023-06-10T00:41:01;94922.72;;;20.88;52.32
79577;BME280;69045;48.136;11.386;2023-06-10T00:43:29;94926.31;;;20.78;52.64
79577;BME280;69045;48.136;11.386;2023-06-10T00:45:57;94937.13;;;20.68;52.73
79577;BME280;69045;48.136;11.386;2023-06-10T00:48:27;94942.22;;;20.64;52.67
79577;BME280;69045;48.136;11.386;2023-06-10T00:50:57;94937.63;;;20.51;53.29
79577;BME280;69045;48.136;11.386;2023-06-10T00:53:27;94939.00;;;20.49;53.51
79577;BME280;69045;48.136;11.386;2023-06-10T00:55:56;94936.53;;;20.52;54.18
79577;BME280;69045;48.136;11.386;2023-06-10T00:58:26;94928.72;;;20.61;53.41
79577;BME280;69045;48.136;11.386;2023-06-10T01:00:54;94930.34;;;20.57;53.47
79577;BME280;69045;48.136;11.386;2023-06-10T01:03:27;94926.91;;;20.56;53.52
79577;BME280;69045;48.136;11.386;2023-06-10T01:06:06;94930.53;;;20.47;53.78
79577;BME280;69045;48.136;11.386;2023-06-10T01:08:47;94929.44;;;20.48;54.01
79577;BME280;69045;48.136;11.386;2023-06-10T01:11:22;94927.91;;;20.41;54.21
79577;BME280;69045;48.136;11.386;2023-06-10T01:13:55;94933.44;;;20.26;54.78
79577;BME280;69045;48.136;11.386;2023-06-10T01:16:24;94931.63;;;20.22;54.90
79577;BME280;69045;48.136;11.386;2023-06-10T01:18:55;94931.38;;;20.18;54.72
79577;BME280;69045;48.136;11.386;2023-06-10T01:21:26;94934.63;;;20.15;55.06
79577;BME280;69045;48.136;11.386;2023-06-10T01:23:55;94936.00;;;20.12;55.08
79577;BME280;69045;48.136;11.386;2023-06-10T01:26:28;94941.59;;;20.11;55.22
79577;BME280;69045;48.136;11.386;2023-06-10T01:29:03;94936.28;;;20.11;55.51
79577;BME280;69045;48.136;11.386;2023-06-10T01:31:42;94940.00;;;20.10;55.41
79577;BME280;69045;48.136;11.386;2023-06-10T01:34:16;94944.09;;;20.02;55.84
79577;BME280;69045;48.136;11.386;2023-06-10T01:36:48;94947.69;;;19.93;56.16
79577;BME280;69045;48.136;11.386;2023-06-10T01:39:21;94950.44;;;19.82;56.56
79577;BME280;69045;48.136;11.386;2023-06-10T01:41:52;94943.78;;;19.85;56.42
79577;BME280;69045;48.136;11.386;2023-06-10T01:44:22;94937.44;;;19.81;56.44
79577;BME280;69045;48.136;11.386;2023-06-10T01:46:50;94935.81;;;19.61;57.17
79577;BME280;69045;48.136;11.386;2023-06-10T01:49:19;94939.56;;;19.55;57.14
79577;BME280;69045;48.136;11.386;2023-06-10T01:51:50;94936.44;;;19.48;57.42
79577;BME280;69045;48.136;11.386;2023-06-10T01:54:18;94945.81;;;19.40;57.70
79577;BME280;69045;48.136;11.386;2023-06-10T01:56:46;94941.88;;;19.38;57.53
79577;BME280;69045;48.136;11.386;2023-06-10T01:59:14;94945.41;;;19.28;57.84
79577;BME280;69045;48.136;11.386;2023-06-10T02:01:42;94946.81;;;19.20;58.15
79577;BME280;69045;48.136;11.386;2023-06-10T02:04:11;94946.56;;;19.17;58.42
79577;BME280;69045;48.136;11.386;2023-06-10T02:06:39;94942.78;;;19.23;58.07
79577;BME280;69045;48.136;11.386;2023-06-10T02:09:10;94940.66;;;19.25;57.92
79577;BME280;69045;48.136;11.386;2023-06-10T02:11:38;94945.44;;;19.23;57.97
79577;BME280;69045;48.136;11.386;2023-06-10T02:14:06;94946.03;;;19.20;58.17
79577;BME280;69045;48.136;11.386;2023-06-10T02:16:34;94953.19;;;19.19;58.38
79577;BME280;69045;48.136;11.386;2023-06-10T02:19:05;94942.09;;;19.12;58.38
79577;BME280;69045;48.136;11.386;2023-06-10T02:21:34;94948.75;;;19.09;58.35
79577;BME280;69045;48.136;11.386;2023-06-10T02:24:03;94947.91;;;19.14;58.27
79577;BME280;69045;48.136;11.386;2023-06-10T02:26:32;94946.03;;;19.20;58.62
79577;BME280;69045;48.136;11.386;2023-06-10T02:29:01;94945.72;;;19.21;58.58
79577;BME280;69045;48.136;11.386;2023-06-10T02:31:30;94947.41;;;19.12;58.32
79577;BME280;69045;48.136;11.386;2023-06-10T02:33:59;94946.38;;;19.08;58.59
79577;BME280;69045;48.136;11.386;2023-06-10T02:36:27;94937.09;;;19.11;58.40
79577;BME280;69045;48.136;11.386;2023-06-10T02:38:56;94940.53;;;19.11;58.64
79577;BME280;69045;48.136;11.386;2023-06-10T02:41:24;94946.38;;;19.08;58.97
79577;BME280;69045;48.136;11.386;2023-06-10T02:43:56;94939.31;;;18.98;59.19
79577;BME280;69045;48.136;11.386;2023-06-10T02:46:24;94942.78;;;18.94;59.68
79577;BME280;69045;48.136;11.386;2023-06-10T02:48:53;94940.91;;;18.94;59.80
79577;BME280;69045;48.136;11.386;2023-06-10T02:51:23;94940.91;;;18.94;59.98
79577;BME280;69045;48.136;11.386;2023-06-10T02:53:57;94952.13;;;18.86;59.28
79577;BME280;69045;48.136;11.386;2023-06-10T02:56:26;94941.59;;;18.76;59.20
79577;BME280;69045;48.136;11.386;2023-06-10T02:58:58;94943.50;;;18.70;59.35
79577;BME280;69045;48.136;11.386;2023-06-10T03:01:28;94950.41;;;18.61;59.74
79577;BME280;69045;48.136;11.386;2023-06-10T03:04:05;94951.53;;;18.55;59.75
79577;BME280;69045;48.136;11.386;2023-06-10T03:06:35;94954.22;;;18.50;60.00
79577;BME280;69045;48.136;11.386;2023-06-10T03:09:13;94946.00;;;18.46;59.95
79577;BME280;69045;48.136;11.386;2023-06-10T03:11:44;94946.03;;;18.41;59.94
79577;BME280;69045;48.136;11.386;2023-06-10T03:14:14;94948.75;;;18.36;60.27
79577;BME280;69045;48.136;11.386;2023-06-10T03:16:42;94950.31;;;18.37;60.16
79577;BME280;69045;48.136;11.386;2023-06-10T03:19:12;94951.63;;;18.40;60.41
79577;BME280;69045;48.136;11.386;2023-06-10T03:21:44;94952.69;;;18.39;60.52
79577;BME280;69045;48.136;11.386;2023-06-10T03:24:14;94962.25;;;18.35;60.87
79577;BME280;69045;48.136;11.386;2023-06-10T03:26:43;94966.50;;;18.36;61.01
79577;BME280;69045;48.136;11.386;2023-06-10T03:29:14;94962.50;;;18.38;61.06
79577;BME280;69045;48.136;11.386;2023-06-10T03:31:43;94970.22;;;18.35;61.10
79577;BME280;69045;48.136;11.386;2023-06-10T03:34:12;94972.06;;;18.34;61.28
79577;BME280;69045;48.136;11.386;2023-06-10T03:36:41;94984.81;;;18.32;61.86
79577;BME280;69045;48.136;11.386;2023-06-10T03:39:10;94982.72;;;18.29;61.93
79577;BME280;69045;48.136;11.386;2023-06-10T03:41:39;94981.13;;;18.28;62.04
79577;BME280;69045;48.136;11.386;2023-06-10T03:44:09;94984.56;;;18.28;62.43
79577;BME280;69045;48.136;11.386;2023-06-10T03:46:38;94986.41;;;18.28;62.37
79577;BME280;69045;48.136;11.386;2023-06-10T03:49:07;94990.94;;;18.27;62.51
79577;BME280;69045;48.136;11.386;2023-06-10T03:51:36;94987.97;;;18.34;62.35
79577;BME280;69045;48.136;11.386;2023-06-10T03:54:05;94992.97;;;18.41;63.10
79577;BME280;69045;48.136;11.386;2023-06-10T03:56:33;94989.81;;;18.44;62.63
79577;BME280;69045;48.136;11.386;2023-06-10T03:59:02;94993.47;;;18.48;62.47
79577;BME280;69045;48.136;11.386;2023-06-10T04:01:30;94995.56;;;18.56;62.28
79577;BME280;69045;48.136;11.386;2023-06-10T04:03:59;94990.75;;;18.63;62.35
79577;BME280;69045;48.136;11.386;2023-06-10T04:06:28;94996.03;;;18.68;62.11
79577;BME280;69045;48.136;11.386;2023-06-10T04:08:57;94994.94;;;18.74;61.95
79577;BME280;69045;48.136;11.386;2023-06-10T04:11:27;94998.66;;;18.78;62.05
79577;BME280;69045;48.136;11.386;2023-06-10T04:13:57;94997.56;;;18.79;61.96
79577;BME280;69045;48.136;11.386;2023-06-10T04:16:25;94992.78;;;18.81;61.74
79577;BME280;69045;48.136;11.386;2023-06-10T04:18:55;94999.94;;;18.81;61.77
79577;BME280;69045;48.136;11.386;2023-06-10T04:21:25;95001.00;;;18.85;61.57
79577;BME280;69045;48.136;11.386;2023-06-10T04:23:53;94998.78;;;18.97;61.65
79577;BME280;69045;48.136;11.386;2023-06-10T04:26:21;94997.91;;;19.07;61.22
79577;BME280;69045;48.136;11.386;2023-06-10T04:28:51;95002.91;;;19.14;61.50
79577;BME280;69045;48.136;11.386;2023-06-10T04:31:19;95011.91;;;19.18;61.66
79577;BME280;69045;48.136;11.386;2023-06-10T04:33:48;95008.69;;;19.21;61.51
79577;BME280;69045;48.136;11.386;2023-06-10T04:36:16;95002.25;;;19.27;61.55
79577;BME280;69045;48.136;11.386;2023-06-10T04:38:46;95013.16;;;19.54;60.64
79577;BME280;69045;48.136;11.386;2023-06-10T04:41:14;95018.22;;;19.85;60.25
79577;BME280;69045;48.136;11.386;2023-06-10T04:43:43;95016.94;;;20.06;59.29
79577;BME280;69045;48.136;11.386;2023-06-10T04:46:11;95017.03;;;20.20;58.85
79577;BME280;69045;48.136;11.386;2023-06-10T04:48:40;95021.09;;;20.36;58.75
79577;BME280;69045;48.136;11.386;2023-06-10T04:51:09;95018.38;;;20.41;58.37
79577;BME280;69045;48.136;11.386;2023-06-10T04:53:37;95014.91;;;20.41;58.54
79577;BME280;69045;48.136;11.386;2023-06-10T04:56:06;95018.84;;;20.49;58.79
79577;BME280;69045;48.136;11.386;2023-06-10T04:58:35;95019.13;;;20.66;58.66
79577;BME280;69045;48.136;11.386;2023-06-10T05:01:04;95023.53;;;20.76;58.55
79577;BME280;69045;48.136;11.386;2023-06-10T05:03:32;95022.38;;;20.82;58.34
79577;BME280;69045;48.136;11.386;2023-06-10T05:06:00;95013.75;;;20.90;57.87
79577;BME280;69045;48.136;11.386;2023-06-10T05:08:28;95014.81;;;21.08;57.57
79577;BME280;69045;48.136;11.386;2023-06-10T05:10:56;95025.69;;;21.30;57.18
79577;BME280;69045;48.136;11.386;2023-06-10T05:13:26;95022.38;;;21.52;56.73
79577;BME280;69045;48.136;11.386;2023-06-10T05:15:54;95024.59;;;21.64;56.42
79577;BME280;69045;48.136;11.386;2023-06-10T05:18:22;95018.47;;;21.63;56.32
79577;BME280;69045;48.136;11.386;2023-06-10T05:20:51;95014.63;;;21.69;56.34
79577;BME280;69045;48.136;11.386;2023-06-10T05:23:20;95015.13;;;21.85;56.06
79577;BME280;69045;48.136;11.386;2023-06-10T05:25:48;95019.06;;;21.88;55.83
79577;BME280;69045;48.136;11.386;2023-06-10T05:28:17;95015.34;;;21.89;56.16
79577;BME280;69045;48.136;11.386;2023-06-10T05:30:46;95023.03;;;21.76;56.38
79577;BME280;69045;48.136;11.386;2023-06-10T05:33:15;95029.53;;;21.70;56.38
79577;BME280;69045;48.136;11.386;2023-06-10T05:35:43;95030.78;;;21.59;56.68
79577;BME280;69045;48.136;11.386;2023-06-10T05:38:11;95028.84;;;21.32;57.93
79577;BME280;69045;48.136;11.386;2023-06-10T05:40:39;95032.38;;;21.27;58.12
79577;BME280;69045;48.136;11.386;2023-06-10T05:43:07;95031.13;;;21.20;58.68
79577;BME280;69045;48.136;11.386;2023-06-10T05:45:37;95027.91;;;21.04;58.49
79577;BME280;69045;48.136;11.386;2023-06-10T05:48:08;95021.06;;;20.98;59.09
79577;BME280;69045;48.136;11.386;2023-06-10T05:50:36;95022.59;;;21.04;59.23
79577;BME280;69045;48.136;11.386;2023-06-10T05:53:06;95027.06;;;21.09;59.52
79577;BME280;69045;48.136;11.386;2023-06-10T05:55:42;95023.38;;;21.05;59.48
79577;BME280;69045;48.136;11.386;2023-06-10T05:58:10;95025.75;;;21.06;59.60
79577;BME280;69045;48.136;11.386;2023-06-10T06:00:39;95034.81;;;21.24;59.03
79577;BME280;69045;48.136;11.386;2023-06-10T06:03:09;95039.16;;;21.52;58.74
79577;BME280;69045;48.136;11.386;2023-06-10T06:05:38;95026.88;;;21.70;57.56
79577;BME280;69045;48.136;11.386;2023-06-10T06:08:07;95034.28;;;21.87;57.31
79577;BME280;69045;48.136;11.386;2023-06-10T06:10:36;95038.47;;;21.93;57.68
79577;BME280;69045;48.136;11.386;2023-06-10T06:13:04;95029.81;;;22.15;56.53
79577;BME280;69045;48.136;11.386;2023-06-10T06:15:32;95038.22;;;22.50;55.85
79577;BME280;69045;48.136;11.386;2023-06-10T06:18:00;95039.13;;;22.81;55.31
79577;BME280;69045;48.136;11.386;2023-06-10T06:20:30;95030.88;;;23.05;54.04
79577;BME280;69045;48.136;11.386;2023-06-10T06:22:58;95030.94;;;23.36;53.09
79577;BME280;69045;48.136;11.386;2023-06-10T06:25:26;95034.91;;;23.61;52.21
79577;BME280;69045;48.136;11.386;2023-06-10T06:27:55;95026.84;;;23.84;52.08
79577;BME280;69045;48.136;11.386;2023-06-10T06:30:23;95029.19;;;24.08;51.88
79577;BME280;69045;48.136;11.386;2023-06-10T06:32:52;95034.63;;;24.25;50.52
79577;BME280;69045;48.136;11.386;2023-06-10T06:35:20;95032.31;;;24.41;50.50
79577;BME280;69045;48.136;11.386;2023-06-10T06:37:50;95035.00;;;24.49;50.07
79577;BME280;69045;48.136;11.386;2023-06-10T06:40:24;95037.56;;;24.63;50.24
79577;BME280;69045;48.136;11.386;2023-06-10T06:42:52;95037.28;;;24.73;49.71
79577;BME280;69045;48.136;11.386;2023-06-10T06:45:36;95043.56;;;24.69;49.55
79577;BME280;69045;48.136;11.386;2023-06-10T06:48:05;95033.91;;;24.42;50.82
79577;BME280;69045;48.136;11.386;2023-06-10T06:50:33;95029.00;;;24.35;51.12
79577;BME280;69045;48.136;11.386;2023-06-10T06:53:05;95040.81;;;24.34;50.67
79577;BME280;69045;48.136;11.386;2023-06-10T06:55:34;95040.81;;;24.43;51.05
79577;BME280;69045;48.136;11.386;2023-06-10T06:58:02;95040.09;;;24.60;51.37
79577;BME280;69045;48.136;11.386;2023-06-10T07:00:31;95043.13;;;24.84;50.08
79577;BME280;69045;48.136;11.386;2023-06-10T07:02:59;95052.78;;;25.11;49.24
79577;BME280;69045;48.136;11.386;2023-06-10T07:05:28;95046.47;;;25.33;49.10
79577;BME280;69045;48.136;11.386;2023-06-10T07:07:57;95055.47;;;25.46;48.43
79577;BME280;69045;48.136;11.386;2023-06-10T07:10:28;95062.88;;;25.75;47.91
79577;BME280;69045;48.136;11.386;2023-06-10T07:12:56;95059.31;;;26.00;47.34
79577;BME280;69045;48.136;11.386;2023-06-10T07:15:24;95045.84;;;26.18;46.40
79577;BME280;69045;48.136;11.386;2023-06-10T07:17:53;95047.19;;;26.41;45.48
79577;BME280;69045;48.136;11.386;2023-06-10T07:20:22;95054.22;;;26.54;45.65
79577;BME280;69045;48.136;11.386;2023-06-10T07:22:50;95057.28;;;26.74;44.99
79577;BME280;69045;48.136;11.386;2023-06-10T07:25:18;95048.06;;;26.83;44.65
79577;BME280;69045;48.136;11.386;2023-06-10T07:27:49;95054.00;;;26.98;43.38
79577;BME280;69045;48.136;11.386;2023-06-10T07:30:17;95054.09;;;27.01;43.63
79577;BME280;69045;48.136;11.386;2023-06-10T07:32:46;95057.25;;;27.12;42.77
79577;BME280;69045;48.136;11.386;2023-06-10T07:35:15;95050.75;;;27.13;42.07
79577;BME280;69045;48.136;11.386;2023-06-10T07:37:43;95057.50;;;27.19;43.37
79577;BME280;69045;48.136;11.386;2023-06-10T07:40:12;95054.78;;;27.40;42.65
79577;BME280;69045;48.136;11.386;2023-06-10T07:42:41;95051.13;;;27.44;41.24
79577;BME280;69045;48.136;11.386;2023-06-10T07:45:11;95049.00;;;27.50;41.25
79577;BME280;69045;48.136;11.386;2023-06-10T07:47:40;95053.06;;;27.56;41.63
79577;BME280;69045;48.136;11.386;2023-06-10T07:50:09;95049.97;;;27.66;41.48
79577;BME280;69045;48.136;11.386;2023-06-10T07:52:38;95051.47;;;27.76;40.32
79577;BME280;69045;48.136;11.386;2023-06-10T07:55:07;95044.50;;;27.75;40.83
79577;BME280;69045;48.136;11.386;2023-06-10T07:57:36;95046.22;;;27.80;40.11
79577;BME280;69045;48.136;11.386;2023-06-10T08:00:06;95044.00;;;27.94;39.79
79577;BME280;69045;48.136;11.386;2023-06-10T08:02:42;95045.91;;;27.93;40.09
79577;BME280;69045;48.136;11.386;2023-06-10T08:05:10;95043.91;;;28.02;40.48
79577;BME280;69045;48.136;11.386;2023-06-10T08:07:40;95045.63;;;28.19;39.86
79577;BME280;69045;48.136;11.386;2023-06-10T08:10:09;95040.81;;;28.37;39.20
79577;BME280;69045;48.136;11.386;2023-06-10T08:12:38;95049.25;;;28.48;39.10
79577;BME280;69045;48.136;11.386;2023-06-10T08:15:07;95043.53;;;28.37;38.80
79577;BME280;69045;48.136;11.386;2023-06-10T08:17:37;95044.66;;;28.48;39.06
79577;BME280;69045;48.136;11.386;2023-06-10T08:20:08;95049.59;;;28.46;39.11
79577;BME280;69045;48.136;11.386;2023-06-10T08:22:38;95042.97;;;28.68;38.96
79577;BME280;69045;48.136;11.386;2023-06-10T08:25:08;95050.13;;;28.89;38.34
79577;BME280;69045;48.136;11.386;2023-06-10T08:27:36;95050.03;;;28.97;38.48
79577;BME280;69045;48.136;11.386;2023-06-10T08:30:06;95047.84;;;29.15;38.04
79577;BME280;69045;48.136;11.386;2023-06-10T08:32:37;95050.25;;;29.32;37.48
79577;BME280;69045;48.136;11.386;2023-06-10T08:35:08;95043.97;;;29.41;36.78
79577;BME280;69045;48.136;11.386;2023-06-10T08:37:37;95049.25;;;29.37;36.48
79577;BME280;69045;48.136;11.386;2023-06-10T08:40:06;95057.00;;;29.38;36.63
79577;BME280;69045;48.136;11.386;2023-06-10T08:42:39;95044.41;;;29.43;36.95
79577;BME280;69045;48.136;11.386;2023-06-10T08:45:15;95044.94;;;29.20;36.24
79577;BME280;69045;48.136;11.386;2023-06-10T08:47:45;95047.75;;;29.12;36.55
79577;BME280;69045;48.136;11.386;2023-06-10T08:50:17;95045.31;;;29.34;36.56
79577;BME280;69045;48.136;11.386;2023-06-10T08:52:48;95045.34;;;29.62;36.41
79577;BME280;69045;48.136;11.386;2023-06-10T08:55:23;95042.69;;;29.78;35.32
79577;BME280;69045;48.136;11.386;2023-06-10T08:57:59;95047.47;;;30.13;35.37
79577;BME280;69045;48.136;11.386;2023-06-10T09:00:30;95045.75;;;30.36;34.39
79577;BME280;69045;48.136;11.386;2023-06-10T09:02:59;95051.56;;;30.38;34.16
79577;BME280;69045;48.136;11.386;2023-06-10T09:05:34;95049.72;;;30.27;34.49
79577;BME280;69045;48.136;11.386;2023-06-10T09:08:05;95048.69;;;30.31;33.51
79577;BME280;69045;48.136;11.386;2023-06-10T09:10:34;95043.84;;;29.93;34.70
79577;BME280;69045;48.136;11.386;2023-06-10T09:13:03;95050.91;;;29.82;35.02
79577;BME280;69045;48.136;11.386;2023-06-10T09:15:31;95043.94;;;29.81;34.93
79577;BME280;69045;48.136;11.386;2023-06-10T09:18:00;95041.31;;;29.84;35.84
79577;BME280;69045;48.136;11.386;2023-06-10T09:20:29;95045.69;;;29.89;36.07
79577;BME280;69045;48.136;11.386;2023-06-10T09:22:59;95041.84;;;30.06;35.25
79577;BME280;69045;48.136;11.386;2023-06-10T09:25:35;95054.72;;;30.25;35.15
79577;BME280;69045;48.136;11.386;2023-06-10T09:28:06;95045.81;;;30.56;34.75
79577;BME280;69045;48.136;11.386;2023-06-10T09:30:41;95045.50;;;30.92;33.49
79577;BME280;69045;48.136;11.386;2023-06-10T09:33:12;95043.97;;;31.11;33.46
79577;BME280;69045;48.136;11.386;2023-06-10T09:35:46;95043.88;;;31.23;34.32
79577;BME280;69045;48.136;11.386;2023-06-10T09:38:20;95036.09;;;31.41;33.79
79577;BME280;69045;48.136;11.386;2023-06-10T09:40:49;95050.00;;;31.59;33.35
79577;BME280;69045;48.136;11.386;2023-06-10T09:43:19;95042.31;;;31.80;33.70
79577;BME280;69045;48.136;11.386;2023-06-10T09:45:49;95047.56;;;31.92;33.16
79577;BME280;69045;48.136;11.386;2023-06-10T09:48:20;95042.03;;;32.08;33.33
79577;BME280;69045;48.136;11.386;2023-06-10T09:50:49;95044.28;;;32.25;32.78
79577;BME280;69045;48.136;11.386;2023-06-10T09:53:18;95040.81;;;32.28;32.68
79577;BME280;69045;48.136;11.386;2023-06-10T09:55:48;95048.19;;;32.51;32.63
79577;BME280;69045;48.136;11.386;2023-06-10T09:58:16;95048.06;;;32.67;31.49
79577;BME280;69045;48.136;11.386;2023-06-10T10:00:52;95046.59;;;32.73;31.74
79577;BME280;69045;48.136;11.386;2023-06-10T10:03:22;95047.56;;;32.61;31.99
79577;BME280;69045;48.136;11.386;2023-06-10T10:05:57;95044.91;;;32.65;31.77
79577;BME280;69045;48.136;11.386;2023-06-10T10:08:28;95045.50;;;32.77;31.79
79577;BME280;69045;48.136;11.386;2023-06-10T10:10:57;95042.78;;;32.77;31.74
79577;BME280;69045;48.136;11.386;2023-06-10T10:13:28;95046.22;;;32.74;31.38
79577;BME280;69045;48.136;11.386;2023-06-10T10:16:00;95039.84;;;32.86;32.54
79577;BME280;69045;48.136;11.386;2023-06-10T10:18:31;95050.47;;;32.98;31.35
79577;BME280;69045;48.136;11.386;2023-06-10T10:21:06;95053.81;;;33.14;31.36
79577;BME280;69045;48.136;11.386;2023-06-10T10:23:48;95049.94;;;33.46;31.25
79577;BME280;69045;48.136;11.386;2023-06-10T10:26:24;95048.47;;;33.52;30.73
79577;BME280;69045;48.136;11.386;2023-06-10T10:29:07;95045.50;;;33.60;30.78
79577;BME280;69045;48.136;11.386;2023-06-10T10:31:39;95049.09;;;33.72;30.34
79577;BME280;69045;48.136;11.386;2023-06-10T10:34:15;95055.13;;;33.58;29.76
79577;BME280;69045;48.136;11.386;2023-06-10T10:36:49;95048.97;;;33.01;32.27
79577;BME280;69045;48.136;11.386;2023-06-10T10:39:20;95047.16;;;32.59;32.31
79577;BME280;69045;48.136;11.386;2023-06-10T10:41:50;95047.66;;;32.42;32.21
79577;BME280;69045;48.136;11.386;2023-06-10T10:44:21;95044.91;;;32.38;32.26
79577;BME280;69045;48.136;11.386;2023-06-10T10:46:51;95042.53;;;32.37;32.29
79577;BME280;69045;48.136;11.386;2023-06-10T10:49:22;95047.41;;;32.50;31.51
79577;BME280;69045;48.136;11.386;2023-06-10T10:51:56;95042.66;;;32.44;31.10
79577;BME280;69045;48.136;11.386;2023-06-10T10:54:31;95040.44;;;32.30;32.53
79577;BME280;69045;48.136;11.386;2023-06-10T10:57:15;95035.81;;;32.08;32.38
79577;BME280;69045;48.136;11.386;2023-06-10T10:59:45;95033.66;;;31.16;33.66
79577;BME280;69045;48.136;11.386;2023-06-10T11:02:17;95041.38;;;30.98;34.18
79577;BME280;69045;48.136;11.386;2023-06-10T11:05:01;95034.63;;;31.24;33.67
79577;BME280;69045;48.136;11.386;2023-06-10T11:07:53;95028.19;;;31.32;32.86
79577;BME280;69045;48.136;11.386;2023-06-10T11:10:52;95028.97;;;30.78;33.46
79577;BME280;69045;48.136;11.386;2023-06-10T11:13:28;95039.16;;;30.53;33.46
79577;BME280;69045;48.136;11.386;2023-06-10T11:15:58;95036.91;;;30.55;33.88
79577;BME280;69045;48.136;11.386;2023-06-10T11:18:39;95036.03;;;30.67;34.06
79577;BME280;69045;48.136;11.386;2023-06-10T11:21:19;95039.44;;;30.64;34.19
79577;BME280;69045;48.136;11.386;2023-06-10T11:24:25;95043.97;;;30.44;34.43
79577;BME280;69045;48.136;11.386;2023-06-10T11:27:40;95040.47;;;30.28;34.62
79577;BME280;69045;48.136;11.386;2023-06-10T11:30:21;95039.09;;;30.50;34.11
79577;BME280;69045;48.136;11.386;2023-06-10T11:32:56;95044.75;;;30.76;34.55
79577;BME280;69045;48.136;11.386;2023-06-10T11:35:30;95046.91;;;30.86;33.77
79577;BME280;69045;48.136;11.386;2023-06-10T11:38:03;95038.84;;;31.06;33.49
79577;BME280;69045;48.136;11.386;2023-06-10T11:40:31;95038.84;;;31.06;33.65
79577;BME280;69045;48.136;11.386;2023-06-10T11:43:03;95031.09;;;30.88;33.29
79577;BME280;69045;48.136;11.386;2023-06-10T11:45:32;95034.97;;;31.07;32.94
79577;BME280;69045;48.136;11.386;2023-06-10T11:48:00;95024.25;;;31.10;33.57
79577;BME280;69045;48.136;11.386;2023-06-10T11:50:30;95031.41;;;30.83;33.45
79577;BME280;69045;48.136;11.386;2023-06-10T11:52:58;95020.47;;;30.80;32.67
79577;BME280;69045;48.136;11.386;2023-06-10T11:55:40;95015.75;;;30.92;32.83
79577;BME280;69045;48.136;11.386;2023-06-10T11:58:26;95022.81;;;30.81;32.75
79577;BME280;69045;48.136;11.386;2023-06-10T12:00:56;95016.63;;;30.81;33.19
79577;BME280;69045;48.136;11.386;2023-06-10T12:03:25;95021.38;;;30.68;32.24
79577;BME280;69045;48.136;11.386;2023-06-10T12:05:57;95011.94;;;30.62;32.89
79577;BME280;69045;48.136;11.386;2023-06-10T12:08:27;95015.03;;;30.44;32.78
79577;BME280;69045;48.136;11.386;2023-06-10T12:10:57;95011.19;;;30.45;33.28
79577;BME280;69045;48.136;11.386;2023-06-10T12:13:28;95014.81;;;30.53;33.92
79577;BME280;69045;48.136;11.386;2023-06-10T12:16:06;95012.66;;;30.59;33.84
79577;BME280;69045;48.136;11.386;2023-06-10T12:18:35;95005.41;;;30.63;33.01
79577;BME280;69045;48.136;11.386;2023-06-10T12:21:16;95001.97;;;30.82;32.73
79577;BME280;69045;48.136;11.386;2023-06-10T12:24:05;95001.03;;;30.74;32.38
79577;BME280;69045;48.136;11.386;2023-06-10T12:26:41;95008.38;;;30.74;32.00
79577;BME280;69045;48.136;11.386;2023-06-10T12:29:21;94999.72;;;30.68;33.18
79577;BME280;69045;48.136;11.386;2023-06-10T12:31:55;94996.94;;;30.64;32.27
79577;BME280;69045;48.136;11.386;2023-06-10T12:34:29;95005.41;;;30.63;33.11
79577;BME280;69045;48.136;11.386;2023-06-10T12:36:57;94992.31;;;30.65;33.14
79577;BME280;69045;48.136;11.386;2023-06-10T12:39:26;94995.31;;;30.44;33.21
79577;BME280;69045;48.136;11.386;2023-06-10T12:41:55;94996.28;;;30.20;34.02
79577;BME280;69045;48.136;11.386;2023-06-10T12:44:34;94998.09;;;30.00;34.24
79577;BME280;69045;48.136;11.386;2023-06-10T12:47:08;94989.72;;;29.89;34.35
79577;BME280;69045;48.136;11.386;2023-06-10T12:49:39;94982.22;;;29.83;34.34
79577;BME280;69045;48.136;11.386;2023-06-10T12:52:08;94983.97;;;29.91;34.86
79577;BME280;69045;48.136;11.386;2023-06-10T12:54:37;94986.84;;;29.82;34.15
79577;BME280;69045;48.136;11.386;2023-06-10T12:57:05;94978.66;;;29.95;33.57
79577;BME280;69045;48.136;11.386;2023-06-10T12:59:35;94975.69;;;29.84;34.72
79577;BME280;69045;48.136;11.386;2023-06-10T13:02:06;94975.94;;;29.79;34.03
79577;BME280;69045;48.136;11.386;2023-06-10T13:04:36;94977.84;;;29.62;35.41
79577;BME280;69045;48.136;11.386;2023-06-10T13:07:06;94974.19;;;29.55;35.28
79577;BME280;69045;48.136;11.386;2023-06-10T13:09:34;94971.69;;;29.50;35.29